createdAt,value
2022-11-16T00:01:11.863Z,99774.31
2022-11-16T00:03:38.618Z,99776.75
2022-11-16T00:06:06.966Z,99779.31
2022-11-16T00:08:37.013Z,99779.22
2022-11-16T00:11:12.231Z,99765.25
2022-11-16T00:13:40.487Z,99773.13
2022-11-16T00:16:08.726Z,99764.41
2022-11-16T00:18:35.628Z,99760.94
2022-11-16T00:21:04.922Z,99768.88
2022-11-16T00:23:31.952Z,99752.56
2022-11-16T00:26:06.315Z,99752.47
2022-11-16T00:28:33.558Z,99765.50
2022-11-16T00:31:03.022Z,99761.84
2022-11-16T00:33:30.019Z,99751.94
2022-11-16T00:35:57.557Z,99744.81
2022-11-16T00:38:24.613Z,99737.75
2022-11-16T00:40:51.577Z,99736.56
2022-11-16T00:43:18.379Z,99728.97
2022-11-16T00:45:45.543Z,99723.53
2022-11-16T00:48:12.704Z,99723.28
2022-11-16T00:50:40.344Z,99714.47
2022-11-16T00:53:07.659Z,99714.63
2022-11-16T00:55:34.838Z,99712.19
2022-11-16T00:58:01.563Z,99718.28
2022-11-16T01:00:28.670Z,99711.09
2022-11-16T01:02:55.443Z,99704.97
2022-11-16T01:05:23.644Z,99714.72
2022-11-16T01:07:51.263Z,99707.53
2022-11-16T01:10:21.130Z,99703.88
2022-11-16T01:12:49.357Z,99705.22
2022-11-16T01:15:18.367Z,99695.25
2022-11-16T01:17:45.443Z,99686.97
2022-11-16T01:20:16.702Z,99682.41
2022-11-16T01:22:44.611Z,99686.78
2022-11-16T01:25:13.225Z,99677.00
2022-11-16T01:27:40.816Z,99684.16
2022-11-16T01:30:10.396Z,99682.22
2022-11-16T01:32:37.634Z,99680.34
2022-11-16T01:35:05.905Z,99672.66
2022-11-16T01:37:32.880Z,99668.69
2022-11-16T01:40:00.099Z,99664.81
2022-11-16T01:42:29.058Z,99653.00
2022-11-16T01:45:02.030Z,99645.13
2022-11-16T01:47:29.443Z,99643.63
2022-11-16T01:50:03.499Z,99645.31
2022-11-16T01:52:32.635Z,99638.97
2022-11-16T01:55:01.056Z,99636.16
2022-11-16T01:57:40.985Z,99634.63
2022-11-16T02:00:10.742Z,99630.31
2022-11-16T02:02:37.465Z,99620.13
2022-11-16T02:05:05.671Z,99624.69
2022-11-16T02:08:21.817Z,99626.25
2022-11-16T02:11:18.858Z,99621.69
2022-11-16T02:14:29.903Z,99622.72
2022-11-16T02:17:33.860Z,99616.25
2022-11-16T02:20:30.067Z,99615.34
2022-11-16T02:23:25.206Z,99609.16
2022-11-16T02:26:07.026Z,99602.97
2022-11-16T02:28:44.873Z,99594.81
2022-11-16T02:31:17.349Z,99596.03
2022-11-16T02:33:47.473Z,99589.13
2022-11-16T02:36:20.437Z,99584.78
2022-11-16T02:38:57.920Z,99590.81
2022-11-16T02:41:27.222Z,99592.59
2022-11-16T02:44:12.006Z,99586.41
2022-11-16T02:46:41.539Z,99585.63
2022-11-16T02:49:15.025Z,99580.31
2022-11-16T02:51:43.318Z,99578.22
2022-11-16T02:54:15.489Z,99575.69
2022-11-16T02:57:17.329Z,99564.63
2022-11-16T02:59:50.700Z,99560.31
2022-11-16T03:02:48.379Z,99565.22
2022-11-16T03:05:32.026Z,99563.63
2022-11-16T03:08:23.357Z,99559.22
2022-11-16T03:11:16.998Z,99559.22
2022-11-16T03:13:44.477Z,99557.25
2022-11-16T03:16:23.008Z,99556.59
2022-11-16T03:18:52.487Z,99550.13
2022-11-16T03:21:33.170Z,99553.69
2022-11-16T03:24:00.299Z,99552.84
2022-11-16T03:26:34.474Z,99549.19
2022-11-16T03:29:11.499Z,99547.50
2022-11-16T03:32:17.392Z,99548.72
2022-11-16T03:34:56.201Z,99536.81
2022-11-16T03:37:25.349Z,99526.78
2022-11-16T03:39:54.006Z,99528.56
2022-11-16T03:42:22.935Z,99531.66
2022-11-16T03:44:50.325Z,99530.00
2022-11-16T03:47:17.678Z,99529.03
2022-11-16T03:49:46.183Z,99525.75
2022-11-16T03:52:15.377Z,99521.44
2022-11-16T03:54:42.674Z,99510.69
2022-11-16T03:57:15.512Z,99511.78
2022-11-16T03:59:43.311Z,99514.50
2022-11-16T04:02:10.782Z,99511.78
2022-11-16T04:04:56.393Z,99498.66
2022-11-16T04:07:42.294Z,99502.91
2022-11-16T04:10:28.635Z,99502.13
2022-11-16T04:13:15.283Z,99495.31
2022-11-16T04:16:00.607Z,99489.13
2022-11-16T04:18:46.508Z,99492.31
2022-11-16T04:21:39.539Z,99479.19
2022-11-16T04:24:14.980Z,99484.59
2022-11-16T04:27:03.932Z,99480.31
2022-11-16T04:29:31.282Z,99477.03
2022-11-16T04:32:16.752Z,99479.75
2022-11-16T04:35:02.527Z,99477.19
2022-11-16T04:37:47.903Z,99485.00
2022-11-16T04:40:16.255Z,99475.53
2022-11-16T04:42:43.410Z,99474.78
2022-11-16T04:45:29.382Z,99472.16
2022-11-16T04:47:56.118Z,99468.97
2022-11-16T04:50:23.172Z,99472.91
2022-11-16T04:52:49.939Z,99465.22
2022-11-16T04:55:16.950Z,99468.78
2022-11-16T04:57:43.687Z,99462.88
2022-11-16T05:00:11.388Z,99464.19
2022-11-16T05:02:38.180Z,99466.16
2022-11-16T05:05:05.587Z,99463.13
2022-11-16T05:07:32.442Z,99468.22
2022-11-16T05:09:59.607Z,99464.75
2022-11-16T05:12:28.375Z,99467.28
2022-11-16T05:14:55.748Z,99461.47
2022-11-16T05:17:24.121Z,99465.41
2022-11-16T05:20:10.137Z,99464.75
2022-11-16T05:22:37.284Z,99464.84
2022-11-16T05:25:05.541Z,99454.06
2022-11-16T05:27:32.387Z,99459.03
2022-11-16T05:29:59.920Z,99450.59
2022-11-16T05:32:27.858Z,99446.56
2022-11-16T05:34:54.993Z,99438.41
2022-11-16T05:37:22.004Z,99439.25
2022-11-16T05:39:49.054Z,99436.47
2022-11-16T05:42:16.161Z,99433.00
2022-11-16T05:44:43.341Z,99429.50
2022-11-16T05:47:10.108Z,99429.22
2022-11-16T05:49:37.185Z,99423.53
2022-11-16T05:52:04.102Z,99421.00
2022-11-16T05:54:31.372Z,99417.25
2022-11-16T05:56:58.174Z,99414.53
2022-11-16T05:59:25.209Z,99412.28
2022-11-16T06:01:52.049Z,99408.97
2022-11-16T06:04:24.661Z,99415.94
2022-11-16T06:06:51.974Z,99412.38
2022-11-16T06:09:19.099Z,99410.59
2022-11-16T06:11:45.850Z,99407.19
2022-11-16T06:14:12.850Z,99405.44
2022-11-16T06:16:39.610Z,99405.16
2022-11-16T06:19:06.612Z,99405.34
2022-11-16T06:21:33.500Z,99413.75
2022-11-16T06:24:02.646Z,99408.59
2022-11-16T06:26:29.505Z,99413.31
2022-11-16T06:28:56.520Z,99416.78
2022-11-16T06:31:23.305Z,99411.59
2022-11-16T06:33:50.345Z,99413.84
2022-11-16T06:36:17.185Z,99423.03
2022-11-16T06:38:44.251Z,99419.09
2022-11-16T06:41:10.977Z,99418.34
2022-11-16T06:43:37.990Z,99409.75
2022-11-16T06:46:04.819Z,99403.16
2022-11-16T06:48:33.697Z,99396.53
2022-11-16T06:51:01.059Z,99392.38
2022-11-16T06:53:29.541Z,99397.47
2022-11-16T06:56:01.519Z,99398.94
2022-11-16T06:58:31.605Z,99391.06
2022-11-16T07:01:05.036Z,99391.00
2022-11-16T07:03:32.326Z,99383.97
2022-11-16T07:05:59.038Z,99394.44
2022-11-16T07:08:27.812Z,99385.81
2022-11-16T07:10:54.554Z,99382.34
2022-11-16T07:13:21.575Z,99379.94
2022-11-16T07:15:48.323Z,99378.97
2022-11-16T07:18:15.349Z,99379.53
2022-11-16T07:20:42.063Z,99379.34
2022-11-16T07:23:13.868Z,99379.44
2022-11-16T07:25:40.992Z,99379.81
2022-11-16T07:28:07.987Z,99380.66
2022-11-16T07:30:34.713Z,99375.03
2022-11-16T07:33:01.697Z,99375.97
2022-11-16T07:35:28.522Z,99369.69
2022-11-16T07:37:55.563Z,99360.34
2022-11-16T07:40:22.461Z,99369.97
2022-11-16T07:42:49.535Z,99361.31
2022-11-16T07:45:16.306Z,99367.72
2022-11-16T07:47:43.709Z,99358.16
2022-11-16T07:50:11.035Z,99361.13
2022-11-16T07:52:38.254Z,99364.50
2022-11-16T07:55:05.845Z,99358.31
2022-11-16T07:57:32.930Z,99352.22
2022-11-16T07:59:59.966Z,99358.19
2022-11-16T08:02:26.990Z,99348.41
2022-11-16T08:04:53.740Z,99348.84
2022-11-16T08:07:20.813Z,99344.34
2022-11-16T08:09:47.763Z,99343.00
2022-11-16T08:12:14.800Z,99339.28
2022-11-16T08:14:41.586Z,99339.81
2022-11-16T08:17:08.610Z,99342.53
2022-11-16T08:19:36.614Z,99343.31
2022-11-16T08:22:03.837Z,99345.00
2022-11-16T08:24:30.802Z,99348.97
2022-11-16T08:26:58.854Z,99352.38
2022-11-16T08:29:26.387Z,99344.78
2022-11-16T08:31:53.786Z,99334.94
2022-11-16T08:34:21.334Z,99338.41
2022-11-16T08:36:48.516Z,99339.25
2022-11-16T08:39:15.247Z,99336.63
2022-11-16T08:41:44.241Z,99338.84
2022-11-16T08:44:11.451Z,99342.50
2022-11-16T08:46:39.498Z,99341.38
2022-11-16T08:49:06.344Z,99334.66
2022-11-16T08:51:36.136Z,99323.31
2022-11-16T08:54:04.001Z,99332.16
2022-11-16T08:56:31.074Z,99338.34
2022-11-16T08:58:59.454Z,99335.41
2022-11-16T09:01:29.270Z,99333.81
2022-11-16T09:03:56.433Z,99331.94
2022-11-16T09:06:24.856Z,99320.41
2022-11-16T09:08:51.986Z,99318.50
2022-11-16T09:11:21.908Z,99320.72
2022-11-16T09:13:50.846Z,99316.59
2022-11-16T09:16:21.069Z,99315.59
2022-11-16T09:18:50.117Z,99319.03
2022-11-16T09:21:25.418Z,99318.41
2022-11-16T09:23:53.616Z,99317.81
2022-11-16T09:26:22.946Z,99315.25
2022-11-16T09:29:00.871Z,99318.84
2022-11-16T09:31:29.442Z,99313.28
2022-11-16T09:33:58.861Z,99321.16
2022-11-16T09:36:28.280Z,99321.78
2022-11-16T09:41:55.793Z,99303.38
2022-11-16T09:44:44.086Z,99296.16
2022-11-16T09:47:39.478Z,99280.16
2022-11-16T09:50:08.402Z,99278.19
2022-11-16T09:52:45.302Z,99285.34
2022-11-16T09:55:49.097Z,99290.13
2022-11-16T09:58:23.886Z,99291.53
2022-11-16T10:00:58.701Z,99284.91
2022-11-16T10:03:28.380Z,99276.03
2022-11-16T10:05:57.675Z,99271.91
2022-11-16T10:08:51.447Z,99260.75
2022-11-16T10:11:23.884Z,99260.25
2022-11-16T10:14:38.907Z,99249.06
2022-11-16T10:17:14.539Z,99250.59
2022-11-16T10:20:30.979Z,99249.75
2022-11-16T10:23:19.699Z,99245.50
2022-11-16T10:25:59.029Z,99245.09
2022-11-16T10:28:46.942Z,99231.75
2022-11-16T10:31:25.161Z,99232.50
2022-11-16T10:33:56.576Z,99231.75
2022-11-16T10:36:27.688Z,99225.44
2022-11-16T10:38:57.318Z,99222.41
2022-11-16T10:41:46.150Z,99216.84
2022-11-16T10:44:21.632Z,99224.72
2022-11-16T10:47:05.782Z,99218.28
2022-11-16T10:50:01.887Z,99214.22
2022-11-16T10:52:28.910Z,99212.72
2022-11-16T10:54:55.643Z,99208.69
2022-11-16T10:57:24.898Z,99200.75
2022-11-16T10:59:55.465Z,99199.97
2022-11-16T11:02:34.756Z,99199.47
2022-11-16T11:05:02.128Z,99192.34
2022-11-16T11:07:40.101Z,99191.50
2022-11-16T11:10:33.914Z,99187.69
2022-11-16T11:13:20.794Z,99177.81
2022-11-16T11:15:51.417Z,99164.69
2022-11-16T11:18:25.674Z,99157.81
2022-11-16T11:20:58.139Z,99170.88
2022-11-16T11:23:26.321Z,99161.63
2022-11-16T11:25:58.925Z,99153.75
2022-11-16T11:28:35.368Z,99154.78
2022-11-16T11:31:04.835Z,99149.22
2022-11-16T11:33:38.339Z,99149.75
2022-11-16T11:36:07.042Z,99153.09
2022-11-16T11:38:54.175Z,99144.59
2022-11-16T11:41:21.059Z,99141.44
2022-11-16T11:44:12.648Z,99144.50
2022-11-16T11:49:35.917Z,99141.84
2022-11-16T11:52:22.548Z,99140.06
2022-11-16T11:54:54.186Z,99131.22
2022-11-16T11:57:23.884Z,99125.25
2022-11-16T11:59:53.988Z,99134.09
2022-11-16T12:02:55.412Z,99129.44
2022-11-16T12:05:45.716Z,99123.50
2022-11-16T12:08:26.783Z,99131.50
2022-11-16T12:11:01.682Z,99128.16
2022-11-16T12:13:51.193Z,99118.25
2022-11-16T12:16:45.753Z,99114.78
2022-11-16T12:19:18.403Z,99120.69
2022-11-16T12:22:04.669Z,99117.34
2022-11-16T12:24:49.374Z,99115.75
2022-11-16T12:27:52.046Z,99122.78
2022-11-16T12:30:21.581Z,99120.16
2022-11-16T12:33:10.296Z,99117.84
2022-11-16T12:36:22.362Z,99115.84
2022-11-16T12:39:10.144Z,99107.66
2022-11-16T12:41:52.754Z,99098.19
2022-11-16T12:44:47.845Z,99101.88
2022-11-16T12:47:23.368Z,99104.06
2022-11-16T12:50:02.154Z,99100.09
2022-11-16T12:52:48.878Z,99097.34
2022-11-16T12:55:53.405Z,99095.78
2022-11-16T12:58:35.518Z,99090.53
2022-11-16T13:01:37.497Z,99089.69
2022-11-16T13:04:04.218Z,99082.63
2022-11-16T13:06:37.436Z,99093.16
2022-11-16T13:09:11.112Z,99091.47
2022-11-16T13:11:46.850Z,99090.53
2022-11-16T13:14:24.159Z,99097.47
2022-11-16T13:16:52.029Z,99090.41
2022-11-16T13:19:19.134Z,99092.09
2022-11-16T13:22:00.009Z,99090.53
2022-11-16T13:24:44.175Z,99086.94
2022-11-16T13:27:34.469Z,99094.00
2022-11-16T13:30:14.011Z,99083.78
2022-11-16T13:32:50.133Z,99080.84
2022-11-16T13:35:18.078Z,99090.41
2022-11-16T13:37:47.228Z,99083.47
2022-11-16T13:40:21.659Z,99087.66
2022-11-16T13:43:10.754Z,99087.53
2022-11-16T13:45:43.175Z,99087.47
2022-11-16T13:48:25.064Z,99079.28
2022-11-16T13:51:04.155Z,99085.16
2022-11-16T13:56:28.639Z,99078.41
2022-11-16T13:58:58.589Z,99075.91
2022-11-16T14:01:26.667Z,99073.16
2022-11-16T14:04:36.579Z,99070.53
2022-11-16T14:07:03.563Z,99071.50
2022-11-16T14:09:56.833Z,99073.50
2022-11-16T14:12:52.765Z,99067.06
2022-11-16T14:15:31.983Z,99064.69
2022-11-16T14:18:08.637Z,99065.28
2022-11-16T14:20:58.679Z,99063.00
2022-11-16T14:23:49.735Z,99063.72
2022-11-16T14:26:24.472Z,99058.47
2022-11-16T14:29:11.564Z,99053.31
2022-11-16T14:32:00.515Z,99051.78
2022-11-16T14:34:39.969Z,99047.34
2022-11-16T14:37:14.821Z,99050.19
2022-11-16T14:39:46.050Z,99039.56
2022-11-16T14:42:20.183Z,99051.25
2022-11-16T14:44:47.742Z,99048.50
2022-11-16T14:47:24.789Z,99049.13
2022-11-16T14:49:52.491Z,99048.38
2022-11-16T14:52:28.814Z,99048.63
2022-11-16T14:55:00.550Z,99039.91
2022-11-16T14:57:27.597Z,99049.47
2022-11-16T15:00:08.760Z,99039.16
2022-11-16T15:02:37.205Z,99043.38
2022-11-16T15:05:04.306Z,99038.13
2022-11-16T15:07:31.564Z,99035.69
2022-11-16T15:10:00.183Z,99028.63
2022-11-16T15:12:41.339Z,99032.97
2022-11-16T15:15:15.392Z,99030.53
2022-11-16T15:17:45.232Z,99027.09
2022-11-16T15:20:16.563Z,99024.56
2022-11-16T15:22:46.488Z,99025.53
2022-11-16T15:25:44.414Z,99026.38
2022-11-16T15:28:16.491Z,99022.06
2022-11-16T15:30:50.800Z,99013.31
2022-11-16T15:33:41.098Z,99017.66
2022-11-16T15:36:41.107Z,99009.81
2022-11-16T15:39:21.796Z,99016.03
2022-11-16T15:41:49.015Z,99020.88
2022-11-16T15:44:22.514Z,99017.66
2022-11-16T15:46:53.901Z,99022.91
2022-11-16T15:49:32.379Z,99010.69
2022-11-16T15:52:00.022Z,99014.22
2022-11-16T15:54:30.859Z,99015.94
2022-11-16T15:57:07.923Z,99022.13
2022-11-16T15:59:36.995Z,99019.50
2022-11-16T16:02:04.495Z,99019.59
2022-11-16T16:04:31.671Z,99020.31
2022-11-16T16:07:00.205Z,99012.38
2022-11-16T16:09:30.537Z,99010.88
2022-11-16T16:12:21.428Z,99007.66
2022-11-16T16:14:51.044Z,99000.63
2022-11-16T16:17:30.516Z,99002.28
2022-11-16T16:20:04.068Z,99002.28
2022-11-16T16:22:34.108Z,99010.28
2022-11-16T16:25:02.213Z,99007.75
2022-11-16T16:27:31.411Z,99004.19
2022-11-16T16:30:03.209Z,98998.94
2022-11-16T16:32:31.042Z,99008.59
2022-11-16T16:35:00.581Z,99009.22
2022-11-16T16:37:31.949Z,99014.91
2022-11-16T16:40:00.074Z,99007.66
2022-11-16T16:42:27.112Z,98999.13
2022-11-16T16:44:54.281Z,98994.53
2022-11-16T16:47:21.017Z,99000.31
2022-11-16T16:49:49.402Z,98996.31
2022-11-16T16:52:16.807Z,99002.72
2022-11-16T16:54:43.915Z,98998.19
2022-11-16T16:57:18.294Z,99000.81
2022-11-16T16:59:48.157Z,98998.94
2022-11-16T17:02:18.433Z,98997.97
2022-11-16T17:04:48.980Z,98994.84
2022-11-16T17:07:16.295Z,98996.53
2022-11-16T17:09:45.629Z,98992.94
2022-11-16T17:12:12.414Z,98991.91
2022-11-16T17:14:39.463Z,98994.59
2022-11-16T17:17:06.185Z,98984.94
2022-11-16T17:19:33.227Z,98977.91
2022-11-16T17:22:01.286Z,98990.44
2022-11-16T17:24:28.372Z,98986.84
2022-11-16T17:26:55.124Z,98981.72
2022-11-16T17:29:22.150Z,98982.53
2022-11-16T17:31:48.890Z,98989.47
2022-11-16T17:34:15.919Z,98980.63
2022-11-16T17:36:43.323Z,98985.16
2022-11-16T17:39:10.545Z,98985.06
2022-11-16T17:41:37.528Z,98975.63
2022-11-16T17:44:04.798Z,98975.50
2022-11-16T17:46:31.740Z,98971.91
2022-11-16T17:48:58.822Z,98968.44
2022-11-16T17:51:26.764Z,98972.16
2022-11-16T17:53:54.159Z,98968.69
2022-11-16T17:56:23.372Z,98974.78
2022-11-16T17:58:55.137Z,98975.63
2022-11-16T18:01:22.722Z,98978.75
2022-11-16T18:03:50.559Z,98974.16
2022-11-16T18:06:19.473Z,98966.38
2022-11-16T18:08:46.732Z,98963.03
2022-11-16T18:11:19.224Z,98959.56
2022-11-16T18:13:47.152Z,98970.16
2022-11-16T18:16:19.185Z,98970.72
2022-11-16T18:18:48.581Z,98962.97
2022-11-16T18:21:20.613Z,98964.97
2022-11-16T18:23:48.379Z,98968.09
2022-11-16T18:26:17.950Z,98962.97
2022-11-16T18:28:45.598Z,98954.25
2022-11-16T18:31:24.256Z,98957.38
2022-11-16T18:33:53.180Z,98958.22
2022-11-16T18:36:21.118Z,98962.41
2022-11-16T18:38:48.422Z,98959.06
2022-11-16T18:41:24.114Z,98952.53
2022-11-16T18:43:54.012Z,98952.53
2022-11-16T18:46:23.160Z,98951.69
2022-11-16T18:48:50.348Z,98959.56
2022-11-16T18:51:18.539Z,98959.19
2022-11-16T18:53:47.640Z,98952.72
2022-11-16T18:56:15.418Z,98961.91
2022-11-16T18:58:51.954Z,98964.63
2022-11-16T19:01:22.029Z,98969.81
2022-11-16T19:03:50.158Z,98958.22
2022-11-16T19:06:19.158Z,98955.78
2022-11-16T19:08:52.140Z,98951.63
2022-11-16T19:11:22.399Z,98957.59
2022-11-16T19:13:54.124Z,98961.81
2022-11-16T19:16:21.101Z,98951.50
2022-11-16T19:18:48.384Z,98954.13
2022-11-16T19:21:18.430Z,98946.88
2022-11-16T19:23:48.266Z,98941.63
2022-11-16T19:26:16.792Z,98954.63
2022-11-16T19:28:46.599Z,98951.06
2022-11-16T19:31:21.521Z,98952.72
2022-11-16T19:33:52.606Z,98948.13
2022-11-16T19:36:19.718Z,98943.31
2022-11-16T19:38:48.491Z,98942.47
2022-11-16T19:41:17.107Z,98941.63
2022-11-16T19:43:44.171Z,98939.84
2022-11-16T19:46:13.241Z,98939.00
2022-11-16T19:48:41.243Z,98938.88
2022-11-16T19:51:10.184Z,98939.94
2022-11-16T19:53:38.122Z,98936.38
2022-11-16T19:56:06.734Z,98934.25
2022-11-16T19:58:39.381Z,98937.09
2022-11-16T20:01:09.908Z,98941.50
2022-11-16T20:03:38.355Z,98938.03
2022-11-16T20:06:10.747Z,98927.41
2022-11-16T20:08:39.029Z,98936.25
2022-11-16T20:11:23.595Z,98934.34
2022-11-16T20:13:52.840Z,98936.38
2022-11-16T20:16:24.216Z,98941.38
2022-11-16T20:18:52.401Z,98939.19
2022-11-16T20:21:33.603Z,98935.31
2022-11-16T20:24:07.029Z,98942.47
2022-11-16T20:26:36.089Z,98943.19
2022-11-16T20:29:03.564Z,98936.13
2022-11-16T20:31:32.388Z,98938.88
2022-11-16T20:34:04.557Z,98945.38
2022-11-16T20:36:32.984Z,98942.47
2022-11-16T20:39:01.011Z,98935.31
2022-11-16T20:41:30.140Z,98922.88
2022-11-16T20:43:59.405Z,98921.22
2022-11-16T20:46:28.439Z,98912.63
2022-11-16T20:48:57.182Z,98912.63
2022-11-16T20:51:24.238Z,98918.69
2022-11-16T20:53:52.056Z,98916.59
2022-11-16T20:56:19.861Z,98912.28
2022-11-16T20:58:48.270Z,98915.25
2022-11-16T21:01:20.402Z,98917.03
2022-11-16T21:03:47.522Z,98917.53
2022-11-16T21:06:14.839Z,98922.28
2022-11-16T21:08:42.294Z,98929.44
2022-11-16T21:11:24.997Z,98925.22
2022-11-16T21:14:10.727Z,98917.63
2022-11-16T21:16:38.134Z,98915.88
2022-11-16T21:19:05.775Z,98918.50
2022-11-16T21:21:33.152Z,98924.47
2022-11-16T21:24:00.633Z,98921.59
2022-11-16T21:26:29.676Z,98913.25
2022-11-16T21:28:57.466Z,98897.69
2022-11-16T21:31:26.699Z,98902.09
